• Join FlightAware (Why Join?)
  • Login
  • US Flag 
01:48PM EDT


 

Airport Tracker/Info


-or-


 

Live Flight TrackerFlight Track Log ✈ EJA671 ✈ 16-Oct-2013 ✈ KSWO - KDAL

Flight Track Log - Related Links

Times and Time Zones

All times are in EDT time to prevent confusion due to time zone crossing. See the EJA671 flight status page for this flight to view local times or setup timezone preferences in your user account.

Time Position Orientation Groundspeed Altitude Reporting Facility
EDT Latitude Longitude Course Direction KTS MPH feet Rate Location/Type
10:57PM 35.9994 -97.0922 182° South 217 250 5,400  Level Kansas City Center
10:58PM 35.9342 -97.0958 183° South 229 264 7,100 2,400 Climbing Kansas City Center
10:59PM 35.8569 -97.0869 175° South 266 306 10,300 2,700 Climbing Kansas City Center
11:00PM 35.7769 -97.0556 162° South 295 339 12,700 2,160 Climbing Kansas City Center
11:01PM 35.6922 -97.0236 163° South 309 356 14,700 1,920 Climbing Kansas City Center
11:02PM 35.7149 -97.0532 182° South  Level Estimated
11:02PM 35.6019 -96.9894 163° South 326 375 16,700  Level Kansas City Center
11:02PM 35.5411 -96.9672 163° South 331 381 17,900 1,320 Climbing Fort Worth Center
11:03PM 35.4428 -96.9319 164° South 349 402 19,000 540 Climbing Fort Worth Center
11:04PM 35.3383 -96.8919 163° South 370 426 19,000  Level Fort Worth Center
11:05PM 35.2319 -96.8544 164° South 385 443 19,000  Level Fort Worth Center
11:06PM 35.1275 -96.8144 163° South 391 450 19,000  Level Fort Worth Center
11:07PM 35.0189 -96.7772 164° South 396 456 19,000  Level Fort Worth Center
11:08PM 34.9122 -96.7350 162° South 396 456 19,000  Level Fort Worth Center
11:09PM 34.8056 -96.6978 164° South 396 456 19,000  Level Fort Worth Center
11:10PM 34.7011 -96.6583 163° South 396 456 19,000  Level Fort Worth Center
11:11PM 34.5964 -96.6214 164° South 396 456 19,000  Level Fort Worth Center
11:12PM 34.4919 -96.5819 163° South 396 456 19,000  Level Fort Worth Center
11:13PM 34.3853 -96.5478 165° South 396 456 19,000  Level Fort Worth Center
11:14PM 34.2808 -96.5264 170° South 396 456 19,000  Level Fort Worth Center
11:15PM 34.1742 -96.5072 172° South 391 450 19,000  Level Fort Worth Center
11:16PM 34.0697 -96.4833 169° South 391 450 19,000  Level Fort Worth Center
11:17PM 33.9653 -96.4644 171° South 386 444 19,000 -540 Level Fort Worth Center
11:18PM 33.8608 -96.4431 170° South 386 444 18,000 -1,680 Descending Fort Worth Center
11:19PM 33.7522 -96.4242 172° South 367 422 15,700 -1,860 Descending Fort Worth Center
11:20PM 33.6581 -96.4078 172° South 358 412 14,300 -1,560 Descending Fort Worth Center
11:21PM 33.5597 -96.3889 171° South 353 406 12,600 -1,500 Descending Fort Worth Center
11:22PM 33.4783 -96.3750 172° South 325 374 11,300 -1,320 Descending Fort Worth Center
11:23PM 33.4158 -96.4106 205° Southwest 262 302 10,000 -1,380 Descending Fort Worth Center
11:24PM 33.3667 -96.4333 201° Southwest 264 304 9,000 -1,440 Descending Dallas / Fort Worth TRACON
11:25PM 33.3000 -96.4667 203° Southwest 257 296 7,600 -1,200 Descending Dallas / Fort Worth TRACON
11:26PM 33.2333 -96.5000 203° Southwest 252 290 6,700 -900 Descending Dallas / Fort Worth TRACON
11:27PM 33.1667 -96.5500 212° Southwest 255 293 5,800 -1,020 Descending Dallas / Fort Worth TRACON
11:28PM 33.1000 -96.5833 203° Southwest 253 291 4,600 -960 Descending Dallas / Fort Worth TRACON
11:29PM 33.0500 -96.6167 209° Southwest 245 282 3,800 -780 Descending Dallas / Fort Worth TRACON
11:30PM 32.9667 -96.6500 199° South 254 292 3,000 -480 Descending Dallas / Fort Worth TRACON
11:31PM 32.9333 -96.6833 220° Southwest 239 275 3,000 -60 Level Dallas / Fort Worth TRACON
11:32PM 32.8667 -96.7167 203° Southwest 215 247 2,900 -480 Descending Dallas / Fort Worth TRACON
11:33PM 32.8333 -96.7333 203° Southwest 158 182 2,100 -660 Descending Dallas / Fort Worth TRACON
11:34PM 32.8167 -96.7833 248° West 134 154 1,600 -600 Descending Dallas / Fort Worth TRACON
11:35PM 32.8333 -96.8167 301° West 120 138 900 -720 Descending Dallas / Fort Worth TRACON
11:37PM 32.8333 -96.8500 287° West  Level FlightAware Approximate
11:44PM 32.8471 -96.8518 287° West  Level Estimated
11:45PM 32.8471 -96.8518 287° West  Level Estimated